West Milton, New York
Current Conditions -  °F | °C
As of 2:51 PM on Thursday 30 Oct 2014 (Local Time) from KALB Reporting Station
Broken Clouds Broken Clouds  
Wind Chill: 53°   Ceiling: 4700
Heat Index: 53°   Visibility: 10mi
Dew Point: 34°   Wind: 14mph
Humidity: 48%   Direction: 290°WNW
Pressure: 29.96"   Gusts: NA
Location:  43.002°N, 73.8759°W
Report Text: KALB 301851Z 29012KT 10SM BKN047 12/01 A2996 RMK AO2 SLP146 BKN V SCT T01170011
Loading
Personal Weather Stations






























Interactive Weather Map
Tropical Storm Tracking
New forecast layout! Learn more

10-Day Weather Forecast

Advertisements
Track Severe Weather on mobile